sensor_id;sensor_type;location;lat;lon;timestamp;P1;durP1;ratioP1;P2;durP2;ratioP2
16669;SDS011;8448;52.034;5.158;2023-06-10T00:00:52;10.57;;;8.93;;
16669;SDS011;8448;52.034;5.158;2023-06-10T00:03:22;10.38;;;8.77;;
16669;SDS011;8448;52.034;5.158;2023-06-10T00:05:50;8.88;;;7.97;;
16669;SDS011;8448;52.034;5.158;2023-06-10T00:08:17;12.63;;;9.00;;
16669;SDS011;8448;52.034;5.158;2023-06-10T00:10:45;11.93;;;8.35;;
16669;SDS011;8448;52.034;5.158;2023-06-10T00:13:13;10.90;;;8.52;;
16669;SDS011;8448;52.034;5.158;2023-06-10T00:15:41;10.23;;;9.13;;
16669;SDS011;8448;52.034;5.158;2023-06-10T00:18:09;10.65;;;8.90;;
16669;SDS011;8448;52.034;5.158;2023-06-10T00:20:38;9.98;;;8.13;;
16669;SDS011;8448;52.034;5.158;2023-06-10T00:23:06;10.02;;;8.48;;
16669;SDS011;8448;52.034;5.158;2023-06-10T00:25:33;9.82;;;7.97;;
16669;SDS011;8448;52.034;5.158;2023-06-10T00:28:01;9.27;;;8.18;;
16669;SDS011;8448;52.034;5.158;2023-06-10T00:30:28;9.90;;;8.50;;
16669;SDS011;8448;52.034;5.158;2023-06-10T00:32:56;11.60;;;7.57;;
16669;SDS011;8448;52.034;5.158;2023-06-10T00:35:23;9.73;;;7.82;;
16669;SDS011;8448;52.034;5.158;2023-06-10T00:37:53;11.43;;;8.10;;
16669;SDS011;8448;52.034;5.158;2023-06-10T00:40:22;12.23;;;8.75;;
16669;SDS011;8448;52.034;5.158;2023-06-10T00:42:50;9.63;;;8.23;;
16669;SDS011;8448;52.034;5.158;2023-06-10T00:45:20;11.75;;;8.45;;
16669;SDS011;8448;52.034;5.158;2023-06-10T00:47:47;10.40;;;8.40;;
16669;SDS011;8448;52.034;5.158;2023-06-10T00:50:15;9.73;;;7.70;;
16669;SDS011;8448;52.034;5.158;2023-06-10T00:52:43;9.52;;;7.38;;
16669;SDS011;8448;52.034;5.158;2023-06-10T00:55:15;9.27;;;7.88;;
16669;SDS011;8448;52.034;5.158;2023-06-10T00:57:44;10.70;;;8.02;;
16669;SDS011;8448;52.034;5.158;2023-06-10T01:00:15;8.57;;;7.68;;
16669;SDS011;8448;52.034;5.158;2023-06-10T01:02:43;9.30;;;7.80;;
16669;SDS011;8448;52.034;5.158;2023-06-10T01:05:10;12.20;;;8.15;;
16669;SDS011;8448;52.034;5.158;2023-06-10T01:07:40;9.48;;;8.20;;
16669;SDS011;8448;52.034;5.158;2023-06-10T01:10:15;9.98;;;7.70;;
16669;SDS011;8448;52.034;5.158;2023-06-10T01:12:49;9.95;;;7.82;;
16669;SDS011;8448;52.034;5.158;2023-06-10T01:15:22;9.18;;;7.72;;
16669;SDS011;8448;52.034;5.158;2023-06-10T01:17:53;12.45;;;7.63;;
16669;SDS011;8448;52.034;5.158;2023-06-10T01:20:24;8.75;;;7.35;;
16669;SDS011;8448;52.034;5.158;2023-06-10T01:22:54;10.35;;;7.40;;
16669;SDS011;8448;52.034;5.158;2023-06-10T01:25:23;10.15;;;7.45;;
16669;SDS011;8448;52.034;5.158;2023-06-10T01:27:59;9.10;;;7.00;;
16669;SDS011;8448;52.034;5.158;2023-06-10T01:30:30;11.13;;;7.75;;
16669;SDS011;8448;52.034;5.158;2023-06-10T01:33:05;10.75;;;7.22;;
16669;SDS011;8448;52.034;5.158;2023-06-10T01:35:34;8.30;;;6.72;;
16669;SDS011;8448;52.034;5.158;2023-06-10T01:38:05;10.95;;;6.70;;
16669;SDS011;8448;52.034;5.158;2023-06-10T01:40:33;10.07;;;7.07;;
16669;SDS011;8448;52.034;5.158;2023-06-10T01:43:01;8.75;;;6.78;;
16669;SDS011;8448;52.034;5.158;2023-06-10T01:45:29;10.30;;;7.47;;
16669;SDS011;8448;52.034;5.158;2023-06-10T01:47:56;7.93;;;6.80;;
16669;SDS011;8448;52.034;5.158;2023-06-10T01:50:25;8.07;;;6.93;;
16669;SDS011;8448;52.034;5.158;2023-06-10T01:52:52;8.30;;;6.38;;
16669;SDS011;8448;52.034;5.158;2023-06-10T01:55:21;8.95;;;6.47;;
16669;SDS011;8448;52.034;5.158;2023-06-10T01:57:49;8.25;;;6.60;;
16669;SDS011;8448;52.034;5.158;2023-06-10T02:00:17;9.88;;;6.57;;
16669;SDS011;8448;52.034;5.158;2023-06-10T02:02:44;9.63;;;7.15;;
16669;SDS011;8448;52.034;5.158;2023-06-10T02:05:12;8.50;;;6.72;;
16669;SDS011;8448;52.034;5.158;2023-06-10T02:07:41;8.68;;;6.55;;
16669;SDS011;8448;52.034;5.158;2023-06-10T02:10:08;8.27;;;6.32;;
16669;SDS011;8448;52.034;5.158;2023-06-10T02:12:37;9.43;;;6.65;;
16669;SDS011;8448;52.034;5.158;2023-06-10T02:15:05;10.15;;;7.03;;
16669;SDS011;8448;52.034;5.158;2023-06-10T02:17:32;9.73;;;6.55;;
16669;SDS011;8448;52.034;5.158;2023-06-10T02:20:00;9.80;;;6.22;;
16669;SDS011;8448;52.034;5.158;2023-06-10T02:22:32;8.65;;;5.95;;
16669;SDS011;8448;52.034;5.158;2023-06-10T02:24:59;8.15;;;6.50;;
16669;SDS011;8448;52.034;5.158;2023-06-10T02:27:27;10.40;;;6.25;;
16669;SDS011;8448;52.034;5.158;2023-06-10T02:29:56;8.32;;;6.47;;
16669;SDS011;8448;52.034;5.158;2023-06-10T02:32:24;8.63;;;6.43;;
16669;SDS011;8448;52.034;5.158;2023-06-10T02:34:52;10.00;;;6.40;;
16669;SDS011;8448;52.034;5.158;2023-06-10T02:37:21;8.45;;;6.47;;
16669;SDS011;8448;52.034;5.158;2023-06-10T02:39:49;6.88;;;6.18;;
16669;SDS011;8448;52.034;5.158;2023-06-10T02:42:16;7.78;;;6.00;;
16669;SDS011;8448;52.034;5.158;2023-06-10T02:44:44;9.75;;;5.90;;
16669;SDS011;8448;52.034;5.158;2023-06-10T02:47:18;7.72;;;5.97;;
16669;SDS011;8448;52.034;5.158;2023-06-10T02:49:46;7.78;;;6.55;;
16669;SDS011;8448;52.034;5.158;2023-06-10T02:52:13;8.82;;;6.15;;
16669;SDS011;8448;52.034;5.158;2023-06-10T02:54:41;7.07;;;5.82;;
16669;SDS011;8448;52.034;5.158;2023-06-10T02:57:09;8.65;;;5.93;;
16669;SDS011;8448;52.034;5.158;2023-06-10T02:59:36;10.68;;;6.30;;
16669;SDS011;8448;52.034;5.158;2023-06-10T03:02:05;11.25;;;6.40;;
16669;SDS011;8448;52.034;5.158;2023-06-10T03:04:41;10.75;;;6.50;;
16669;SDS011;8448;52.034;5.158;2023-06-10T03:07:13;9.82;;;6.05;;
16669;SDS011;8448;52.034;5.158;2023-06-10T03:09:41;8.10;;;6.05;;
16669;SDS011;8448;52.034;5.158;2023-06-10T03:12:10;8.13;;;6.40;;
16669;SDS011;8448;52.034;5.158;2023-06-10T03:14:43;9.13;;;6.55;;
16669;SDS011;8448;52.034;5.158;2023-06-10T03:17:10;8.27;;;6.20;;
16669;SDS011;8448;52.034;5.158;2023-06-10T03:19:42;12.60;;;6.40;;
16669;SDS011;8448;52.034;5.158;2023-06-10T03:22:10;9.15;;;5.97;;
16669;SDS011;8448;52.034;5.158;2023-06-10T03:24:44;9.38;;;6.30;;
16669;SDS011;8448;52.034;5.158;2023-06-10T03:27:15;11.43;;;6.20;;
16669;SDS011;8448;52.034;5.158;2023-06-10T03:29:46;9.02;;;6.20;;
16669;SDS011;8448;52.034;5.158;2023-06-10T03:32:14;9.00;;;6.15;;
16669;SDS011;8448;52.034;5.158;2023-06-10T03:34:44;9.25;;;5.82;;
16669;SDS011;8448;52.034;5.158;2023-06-10T03:37:12;9.63;;;6.35;;
16669;SDS011;8448;52.034;5.158;2023-06-10T03:39:42;11.73;;;6.60;;
16669;SDS011;8448;52.034;5.158;2023-06-10T03:42:09;8.85;;;6.18;;
16669;SDS011;8448;52.034;5.158;2023-06-10T03:44:37;9.40;;;5.97;;
16669;SDS011;8448;52.034;5.158;2023-06-10T03:47:04;11.00;;;5.85;;
16669;SDS011;8448;52.034;5.158;2023-06-10T03:49:32;9.00;;;6.45;;
16669;SDS011;8448;52.034;5.158;2023-06-10T03:52:04;9.50;;;6.22;;
16669;SDS011;8448;52.034;5.158;2023-06-10T03:54:31;8.80;;;6.10;;
16669;SDS011;8448;52.034;5.158;2023-06-10T03:57:01;9.70;;;6.38;;
16669;SDS011;8448;52.034;5.158;2023-06-10T03:59:29;11.95;;;6.63;;
16669;SDS011;8448;52.034;5.158;2023-06-10T04:01:57;9.45;;;6.60;;
16669;SDS011;8448;52.034;5.158;2023-06-10T04:04:25;8.43;;;5.60;;
16669;SDS011;8448;52.034;5.158;2023-06-10T04:06:53;10.30;;;6.60;;
16669;SDS011;8448;52.034;5.158;2023-06-10T04:09:23;9.45;;;5.93;;
16669;SDS011;8448;52.034;5.158;2023-06-10T04:11:50;9.07;;;6.15;;
16669;SDS011;8448;52.034;5.158;2023-06-10T04:14:18;9.95;;;6.40;;
16669;SDS011;8448;52.034;5.158;2023-06-10T04:16:46;9.75;;;6.07;;
16669;SDS011;8448;52.034;5.158;2023-06-10T04:19:14;10.00;;;5.90;;
16669;SDS011;8448;52.034;5.158;2023-06-10T04:21:42;10.63;;;6.32;;
16669;SDS011;8448;52.034;5.158;2023-06-10T04:24:10;8.88;;;6.15;;
16669;SDS011;8448;52.034;5.158;2023-06-10T04:26:39;13.23;;;6.07;;
16669;SDS011;8448;52.034;5.158;2023-06-10T04:29:06;12.50;;;5.97;;
16669;SDS011;8448;52.034;5.158;2023-06-10T04:31:34;9.48;;;6.10;;
16669;SDS011;8448;52.034;5.158;2023-06-10T04:34:01;11.65;;;6.93;;
16669;SDS011;8448;52.034;5.158;2023-06-10T04:36:29;10.32;;;5.88;;
16669;SDS011;8448;52.034;5.158;2023-06-10T04:38:56;11.60;;;6.00;;
16669;SDS011;8448;52.034;5.158;2023-06-10T04:41:24;10.50;;;6.45;;
16669;SDS011;8448;52.034;5.158;2023-06-10T04:43:54;11.43;;;6.22;;
16669;SDS011;8448;52.034;5.158;2023-06-10T04:46:21;11.82;;;6.28;;
16669;SDS011;8448;52.034;5.158;2023-06-10T04:48:49;8.82;;;5.85;;
16669;SDS011;8448;52.034;5.158;2023-06-10T04:51:16;9.52;;;6.28;;
16669;SDS011;8448;52.034;5.158;2023-06-10T04:53:44;9.68;;;6.05;;
16669;SDS011;8448;52.034;5.158;2023-06-10T04:56:11;11.32;;;6.35;;
16669;SDS011;8448;52.034;5.158;2023-06-10T04:58:40;12.27;;;6.07;;
16669;SDS011;8448;52.034;5.158;2023-06-10T05:01:09;9.98;;;6.22;;
16669;SDS011;8448;52.034;5.158;2023-06-10T05:03:36;10.73;;;6.70;;
16669;SDS011;8448;52.034;5.158;2023-06-10T05:06:04;9.68;;;6.13;;
16669;SDS011;8448;52.034;5.158;2023-06-10T05:08:31;9.95;;;6.10;;
16669;SDS011;8448;52.034;5.158;2023-06-10T05:10:59;9.90;;;6.50;;
16669;SDS011;8448;52.034;5.158;2023-06-10T05:13:27;9.18;;;6.22;;
16669;SDS011;8448;52.034;5.158;2023-06-10T05:15:54;9.75;;;6.60;;
16669;SDS011;8448;52.034;5.158;2023-06-10T05:18:24;10.13;;;6.47;;
16669;SDS011;8448;52.034;5.158;2023-06-10T05:20:51;12.65;;;6.75;;
16669;SDS011;8448;52.034;5.158;2023-06-10T05:23:19;13.00;;;6.43;;
16669;SDS011;8448;52.034;5.158;2023-06-10T05:25:47;9.82;;;6.45;;
16669;SDS011;8448;52.034;5.158;2023-06-10T05:28:14;9.15;;;6.60;;
16669;SDS011;8448;52.034;5.158;2023-06-10T05:30:42;8.80;;;5.80;;
16669;SDS011;8448;52.034;5.158;2023-06-10T05:33:09;9.68;;;6.53;;
16669;SDS011;8448;52.034;5.158;2023-06-10T05:35:38;9.38;;;6.85;;
16669;SDS011;8448;52.034;5.158;2023-06-10T05:38:06;9.55;;;6.70;;
16669;SDS011;8448;52.034;5.158;2023-06-10T05:40:33;10.18;;;6.32;;
16669;SDS011;8448;52.034;5.158;2023-06-10T05:43:01;12.70;;;6.40;;
16669;SDS011;8448;52.034;5.158;2023-06-10T05:45:28;9.38;;;6.63;;
16669;SDS011;8448;52.034;5.158;2023-06-10T05:47:56;9.73;;;6.60;;
16669;SDS011;8448;52.034;5.158;2023-06-10T05:50:24;8.45;;;6.03;;
16669;SDS011;8448;52.034;5.158;2023-06-10T05:52:53;9.93;;;6.53;;
16669;SDS011;8448;52.034;5.158;2023-06-10T05:55:20;9.25;;;6.60;;
16669;SDS011;8448;52.034;5.158;2023-06-10T05:57:48;9.90;;;6.65;;
16669;SDS011;8448;52.034;5.158;2023-06-10T06:00:25;11.88;;;6.22;;
16669;SDS011;8448;52.034;5.158;2023-06-10T06:02:54;10.48;;;6.55;;
16669;SDS011;8448;52.034;5.158;2023-06-10T06:05:22;10.52;;;6.20;;
16669;SDS011;8448;52.034;5.158;2023-06-10T06:07:50;9.73;;;6.53;;
16669;SDS011;8448;52.034;5.158;2023-06-10T06:10:19;9.43;;;6.35;;
16669;SDS011;8448;52.034;5.158;2023-06-10T06:12:46;9.77;;;6.03;;
16669;SDS011;8448;52.034;5.158;2023-06-10T06:15:14;9.35;;;6.32;;
16669;SDS011;8448;52.034;5.158;2023-06-10T06:17:41;9.55;;;6.95;;
16669;SDS011;8448;52.034;5.158;2023-06-10T06:20:09;10.20;;;6.78;;
16669;SDS011;8448;52.034;5.158;2023-06-10T06:22:37;8.60;;;6.35;;
16669;SDS011;8448;52.034;5.158;2023-06-10T06:25:06;11.15;;;6.90;;
16669;SDS011;8448;52.034;5.158;2023-06-10T06:27:34;11.57;;;7.32;;
16669;SDS011;8448;52.034;5.158;2023-06-10T06:30:01;11.48;;;6.97;;
16669;SDS011;8448;52.034;5.158;2023-06-10T06:32:29;11.52;;;6.47;;
16669;SDS011;8448;52.034;5.158;2023-06-10T06:34:57;11.73;;;7.03;;
16669;SDS011;8448;52.034;5.158;2023-06-10T06:37:24;10.07;;;6.32;;
16669;SDS011;8448;52.034;5.158;2023-06-10T06:40:07;10.07;;;6.72;;
16669;SDS011;8448;52.034;5.158;2023-06-10T06:42:36;9.85;;;6.65;;
16669;SDS011;8448;52.034;5.158;2023-06-10T06:45:13;8.75;;;6.38;;
16669;SDS011;8448;52.034;5.158;2023-06-10T06:47:41;9.55;;;6.57;;
16669;SDS011;8448;52.034;5.158;2023-06-10T06:50:09;9.48;;;6.22;;
16669;SDS011;8448;52.034;5.158;2023-06-10T06:52:37;11.88;;;7.00;;
16669;SDS011;8448;52.034;5.158;2023-06-10T06:55:05;9.45;;;6.20;;
16669;SDS011;8448;52.034;5.158;2023-06-10T06:57:34;9.20;;;6.80;;
16669;SDS011;8448;52.034;5.158;2023-06-10T07:00:01;10.40;;;6.60;;
16669;SDS011;8448;52.034;5.158;2023-06-10T07:02:30;11.20;;;6.28;;
16669;SDS011;8448;52.034;5.158;2023-06-10T07:04:58;8.32;;;6.20;;
16669;SDS011;8448;52.034;5.158;2023-06-10T07:07:25;10.68;;;6.60;;
16669;SDS011;8448;52.034;5.158;2023-06-10T07:09:53;11.13;;;6.25;;
16669;SDS011;8448;52.034;5.158;2023-06-10T07:12:22;11.65;;;6.43;;
16669;SDS011;8448;52.034;5.158;2023-06-10T07:14:50;11.27;;;6.90;;
16669;SDS011;8448;52.034;5.158;2023-06-10T07:17:17;9.30;;;6.43;;
16669;SDS011;8448;52.034;5.158;2023-06-10T07:19:45;9.77;;;6.43;;
16669;SDS011;8448;52.034;5.158;2023-06-10T07:22:12;9.35;;;6.15;;
16669;SDS011;8448;52.034;5.158;2023-06-10T07:24:40;10.35;;;7.05;;
16669;SDS011;8448;52.034;5.158;2023-06-10T07:27:08;10.07;;;6.40;;
16669;SDS011;8448;52.034;5.158;2023-06-10T07:29:37;8.48;;;6.55;;
16669;SDS011;8448;52.034;5.158;2023-06-10T07:32:05;10.63;;;6.68;;
16669;SDS011;8448;52.034;5.158;2023-06-10T07:34:33;7.68;;;6.30;;
16669;SDS011;8448;52.034;5.158;2023-06-10T07:37:00;9.75;;;6.25;;
16669;SDS011;8448;52.034;5.158;2023-06-10T07:39:28;12.20;;;6.30;;
16669;SDS011;8448;52.034;5.158;2023-06-10T07:41:55;7.93;;;6.15;;
16669;SDS011;8448;52.034;5.158;2023-06-10T07:44:23;8.57;;;5.50;;
16669;SDS011;8448;52.034;5.158;2023-06-10T07:46:52;8.98;;;5.72;;
16669;SDS011;8448;52.034;5.158;2023-06-10T07:49:19;9.80;;;6.28;;
16669;SDS011;8448;52.034;5.158;2023-06-10T07:51:47;11.10;;;6.05;;
16669;SDS011;8448;52.034;5.158;2023-06-10T07:54:14;10.18;;;6.10;;
16669;SDS011;8448;52.034;5.158;2023-06-10T07:56:42;8.70;;;5.80;;
16669;SDS011;8448;52.034;5.158;2023-06-10T07:59:09;9.77;;;6.45;;
16669;SDS011;8448;52.034;5.158;2023-06-10T08:01:37;10.95;;;6.20;;
16669;SDS011;8448;52.034;5.158;2023-06-10T08:04:06;7.82;;;6.13;;
16669;SDS011;8448;52.034;5.158;2023-06-10T08:06:34;7.10;;;6.05;;
16669;SDS011;8448;52.034;5.158;2023-06-10T08:09:02;8.70;;;6.45;;
16669;SDS011;8448;52.034;5.158;2023-06-10T08:11:29;7.63;;;5.70;;
16669;SDS011;8448;52.034;5.158;2023-06-10T08:13:57;7.97;;;5.90;;
16669;SDS011;8448;52.034;5.158;2023-06-10T08:16:24;7.18;;;5.70;;
16669;SDS011;8448;52.034;5.158;2023-06-10T08:18:52;9.93;;;5.63;;
16669;SDS011;8448;52.034;5.158;2023-06-10T08:21:21;10.57;;;6.40;;
16669;SDS011;8448;52.034;5.158;2023-06-10T08:23:49;8.95;;;5.97;;
16669;SDS011;8448;52.034;5.158;2023-06-10T08:26:19;12.05;;;6.10;;
16669;SDS011;8448;52.034;5.158;2023-06-10T08:28:47;10.00;;;6.25;;
16669;SDS011;8448;52.034;5.158;2023-06-10T08:31:14;9.88;;;5.65;;
16669;SDS011;8448;52.034;5.158;2023-06-10T08:33:42;8.85;;;6.30;;
16669;SDS011;8448;52.034;5.158;2023-06-10T08:36:09;10.32;;;6.30;;
16669;SDS011;8448;52.034;5.158;2023-06-10T08:38:38;10.52;;;6.40;;
16669;SDS011;8448;52.034;5.158;2023-06-10T08:41:06;10.85;;;5.93;;
16669;SDS011;8448;52.034;5.158;2023-06-10T08:43:34;9.65;;;6.53;;
16669;SDS011;8448;52.034;5.158;2023-06-10T08:46:05;11.38;;;6.13;;
16669;SDS011;8448;52.034;5.158;2023-06-10T08:48:37;10.45;;;6.70;;
16669;SDS011;8448;52.034;5.158;2023-06-10T08:51:08;8.60;;;5.72;;
16669;SDS011;8448;52.034;5.158;2023-06-10T08:53:46;7.55;;;5.85;;
16669;SDS011;8448;52.034;5.158;2023-06-10T08:56:16;11.05;;;6.38;;
16669;SDS011;8448;52.034;5.158;2023-06-10T08:58:45;7.30;;;6.00;;
16669;SDS011;8448;52.034;5.158;2023-06-10T09:01:13;9.18;;;6.00;;
16669;SDS011;8448;52.034;5.158;2023-06-10T09:03:41;13.45;;;6.50;;
16669;SDS011;8448;52.034;5.158;2023-06-10T09:06:09;8.55;;;6.05;;
16669;SDS011;8448;52.034;5.158;2023-06-10T09:08:37;9.88;;;5.57;;
16669;SDS011;8448;52.034;5.158;2023-06-10T09:11:06;10.43;;;5.43;;
16669;SDS011;8448;52.034;5.158;2023-06-10T09:13:33;6.88;;;5.85;;
16669;SDS011;8448;52.034;5.158;2023-06-10T09:16:01;7.95;;;5.53;;
16669;SDS011;8448;52.034;5.158;2023-06-10T09:18:29;11.05;;;6.10;;
16669;SDS011;8448;52.034;5.158;2023-06-10T09:20:57;7.03;;;5.78;;
16669;SDS011;8448;52.034;5.158;2023-06-10T09:23:25;9.80;;;5.88;;
16669;SDS011;8448;52.034;5.158;2023-06-10T09:25:57;9.60;;;6.05;;
16669;SDS011;8448;52.034;5.158;2023-06-10T09:28:25;20.77;;;6.60;;
16669;SDS011;8448;52.034;5.158;2023-06-10T09:31:01;43.15;;;8.52;;
16669;SDS011;8448;52.034;5.158;2023-06-10T09:33:30;7.57;;;5.70;;
16669;SDS011;8448;52.034;5.158;2023-06-10T09:35:59;10.65;;;6.13;;
16669;SDS011;8448;52.034;5.158;2023-06-10T09:38:32;7.65;;;5.57;;
16669;SDS011;8448;52.034;5.158;2023-06-10T09:41:02;9.63;;;6.07;;
16669;SDS011;8448;52.034;5.158;2023-06-10T09:43:40;8.20;;;5.55;;
16669;SDS011;8448;52.034;5.158;2023-06-10T09:46:14;9.27;;;5.60;;
16669;SDS011;8448;52.034;5.158;2023-06-10T09:48:43;8.13;;;6.20;;
16669;SDS011;8448;52.034;5.158;2023-06-10T09:51:11;6.50;;;5.85;;
16669;SDS011;8448;52.034;5.158;2023-06-10T09:53:39;9.05;;;5.70;;
16669;SDS011;8448;52.034;5.158;2023-06-10T09:56:08;12.05;;;5.65;;
16669;SDS011;8448;52.034;5.158;2023-06-10T09:58:36;6.72;;;5.88;;
16669;SDS011;8448;52.034;5.158;2023-06-10T10:01:08;6.90;;;5.70;;
16669;SDS011;8448;52.034;5.158;2023-06-10T10:03:43;8.70;;;5.72;;
16669;SDS011;8448;52.034;5.158;2023-06-10T10:06:12;8.63;;;5.80;;
16669;SDS011;8448;52.034;5.158;2023-06-10T10:08:40;8.50;;;5.43;;
16669;SDS011;8448;52.034;5.158;2023-06-10T10:11:10;6.88;;;5.90;;
16669;SDS011;8448;52.034;5.158;2023-06-10T10:13:37;8.43;;;5.70;;
16669;SDS011;8448;52.034;5.158;2023-06-10T10:16:07;6.90;;;5.47;;
16669;SDS011;8448;52.034;5.158;2023-06-10T10:18:38;8.90;;;6.00;;
16669;SDS011;8448;52.034;5.158;2023-06-10T10:21:09;9.82;;;6.28;;
16669;SDS011;8448;52.034;5.158;2023-06-10T10:23:40;8.40;;;5.68;;
16669;SDS011;8448;52.034;5.158;2023-06-10T10:26:12;9.45;;;5.78;;
16669;SDS011;8448;52.034;5.158;2023-06-10T10:28:41;7.65;;;5.78;;
16669;SDS011;8448;52.034;5.158;2023-06-10T10:31:13;6.82;;;6.20;;
16669;SDS011;8448;52.034;5.158;2023-06-10T10:33:45;7.07;;;5.78;;
16669;SDS011;8448;52.034;5.158;2023-06-10T10:36:18;6.82;;;5.82;;
16669;SDS011;8448;52.034;5.158;2023-06-10T10:38:45;12.50;;;6.60;;
16669;SDS011;8448;52.034;5.158;2023-06-10T10:41:16;9.20;;;6.22;;
16669;SDS011;8448;52.034;5.158;2023-06-10T10:43:46;6.97;;;6.00;;
16669;SDS011;8448;52.034;5.158;2023-06-10T10:46:13;8.80;;;6.30;;
16669;SDS011;8448;52.034;5.158;2023-06-10T10:48:42;8.13;;;5.82;;
16669;SDS011;8448;52.034;5.158;2023-06-10T10:51:10;6.47;;;5.70;;
16669;SDS011;8448;52.034;5.158;2023-06-10T10:53:37;7.78;;;6.15;;
16669;SDS011;8448;52.034;5.158;2023-06-10T10:56:06;8.38;;;5.70;;
16669;SDS011;8448;52.034;5.158;2023-06-10T10:58:35;8.10;;;6.30;;
16669;SDS011;8448;52.034;5.158;2023-06-10T11:01:12;7.00;;;5.85;;
16669;SDS011;8448;52.034;5.158;2023-06-10T11:03:43;6.13;;;5.53;;
16669;SDS011;8448;52.034;5.158;2023-06-10T11:06:12;10.25;;;6.05;;
16669;SDS011;8448;52.034;5.158;2023-06-10T11:08:47;6.65;;;5.68;;
16669;SDS011;8448;52.034;5.158;2023-06-10T11:11:20;10.07;;;6.18;;
16669;SDS011;8448;52.034;5.158;2023-06-10T11:14:03;7.22;;;5.70;;
16669;SDS011;8448;52.034;5.158;2023-06-10T11:16:38;6.93;;;5.75;;
16669;SDS011;8448;52.034;5.158;2023-06-10T11:19:07;8.25;;;5.90;;
16669;SDS011;8448;52.034;5.158;2023-06-10T11:21:37;8.90;;;6.20;;
16669;SDS011;8448;52.034;5.158;2023-06-10T11:24:24;8.10;;;5.63;;
16669;SDS011;8448;52.034;5.158;2023-06-10T11:26:52;6.30;;;5.70;;
16669;SDS011;8448;52.034;5.158;2023-06-10T11:29:21;8.70;;;6.13;;
16669;SDS011;8448;52.034;5.158;2023-06-10T11:31:50;8.13;;;5.68;;
16669;SDS011;8448;52.034;5.158;2023-06-10T11:34:23;8.55;;;5.90;;
16669;SDS011;8448;52.034;5.158;2023-06-10T11:36:52;10.55;;;6.22;;
16669;SDS011;8448;52.034;5.158;2023-06-10T11:39:20;7.57;;;5.35;;
16669;SDS011;8448;52.034;5.158;2023-06-10T11:41:51;7.05;;;5.90;;
16669;SDS011;8448;52.034;5.158;2023-06-10T11:44:19;6.05;;;5.43;;
16669;SDS011;8448;52.034;5.158;2023-06-10T11:46:48;6.50;;;5.70;;
16669;SDS011;8448;52.034;5.158;2023-06-10T11:49:16;6.55;;;5.43;;
16669;SDS011;8448;52.034;5.158;2023-06-10T11:51:45;6.70;;;5.90;;
16669;SDS011;8448;52.034;5.158;2023-06-10T11:54:16;6.75;;;6.07;;
16669;SDS011;8448;52.034;5.158;2023-06-10T11:56:44;7.38;;;5.80;;
16669;SDS011;8448;52.034;5.158;2023-06-10T11:59:12;7.07;;;6.38;;
16669;SDS011;8448;52.034;5.158;2023-06-10T12:01:43;6.90;;;6.20;;
16669;SDS011;8448;52.034;5.158;2023-06-10T12:04:11;8.75;;;6.05;;
16669;SDS011;8448;52.034;5.158;2023-06-10T12:06:41;8.32;;;6.00;;
16669;SDS011;8448;52.034;5.158;2023-06-10T12:09:16;6.57;;;5.93;;
16669;SDS011;8448;52.034;5.158;2023-06-10T12:11:45;8.10;;;6.22;;
16669;SDS011;8448;52.034;5.158;2023-06-10T12:14:14;6.65;;;5.95;;
16669;SDS011;8448;52.034;5.158;2023-06-10T12:16:49;6.78;;;6.10;;
16669;SDS011;8448;52.034;5.158;2023-06-10T12:19:16;6.88;;;6.10;;
16669;SDS011;8448;52.034;5.158;2023-06-10T12:21:43;9.05;;;6.22;;
16669;SDS011;8448;52.034;5.158;2023-06-10T12:24:11;7.28;;;6.18;;
16669;SDS011;8448;52.034;5.158;2023-06-10T12:26:40;7.40;;;5.78;;
16669;SDS011;8448;52.034;5.158;2023-06-10T12:32:00;7.53;;;6.10;;
16669;SDS011;8448;52.034;5.158;2023-06-10T12:34:31;6.55;;;5.95;;
16669;SDS011;8448;52.034;5.158;2023-06-10T12:36:59;7.50;;;6.70;;
16669;SDS011;8448;52.034;5.158;2023-06-10T12:39:29;8.15;;;6.47;;
16669;SDS011;8448;52.034;5.158;2023-06-10T12:41:57;6.90;;;6.20;;
16669;SDS011;8448;52.034;5.158;2023-06-10T12:44:29;6.93;;;6.28;;
16669;SDS011;8448;52.034;5.158;2023-06-10T12:46:57;7.03;;;6.32;;
16669;SDS011;8448;52.034;5.158;2023-06-10T12:49:25;7.95;;;6.07;;
16669;SDS011;8448;52.034;5.158;2023-06-10T12:51:53;7.40;;;6.38;;
16669;SDS011;8448;52.034;5.158;2023-06-10T12:54:21;7.07;;;6.47;;
16669;SDS011;8448;52.034;5.158;2023-06-10T12:56:48;7.97;;;6.75;;
16669;SDS011;8448;52.034;5.158;2023-06-10T12:59:16;7.30;;;6.32;;
16669;SDS011;8448;52.034;5.158;2023-06-10T13:01:43;9.27;;;6.63;;
16669;SDS011;8448;52.034;5.158;2023-06-10T13:04:11;7.00;;;6.13;;
16669;SDS011;8448;52.034;5.158;2023-06-10T13:06:39;9.88;;;6.47;;
16669;SDS011;8448;52.034;5.158;2023-06-10T13:09:06;7.80;;;6.40;;
16669;SDS011;8448;52.034;5.158;2023-06-10T13:11:34;6.93;;;6.22;;
16669;SDS011;8448;52.034;5.158;2023-06-10T13:14:02;6.68;;;5.97;;
16669;SDS011;8448;52.034;5.158;2023-06-10T13:16:31;7.20;;;6.10;;
16669;SDS011;8448;52.034;5.158;2023-06-10T13:18:59;7.55;;;6.80;;
16669;SDS011;8448;52.034;5.158;2023-06-10T13:21:27;9.75;;;6.75;;
16669;SDS011;8448;52.034;5.158;2023-06-10T13:23:56;8.73;;;6.50;;
16669;SDS011;8448;52.034;5.158;2023-06-10T13:26:23;7.35;;;6.65;;
16669;SDS011;8448;52.034;5.158;2023-06-10T13:28:51;7.15;;;6.50;;
16669;SDS011;8448;52.034;5.158;2023-06-10T13:31:18;7.38;;;6.60;;
16669;SDS011;8448;52.034;5.158;2023-06-10T13:33:46;7.25;;;6.50;;
16669;SDS011;8448;52.034;5.158;2023-06-10T13:36:13;7.50;;;6.80;;
16669;SDS011;8448;52.034;5.158;2023-06-10T13:38:41;7.90;;;6.32;;
16669;SDS011;8448;52.034;5.158;2023-06-10T13:41:09;8.10;;;6.72;;
16669;SDS011;8448;52.034;5.158;2023-06-10T13:43:37;7.65;;;6.95;;
16669;SDS011;8448;52.034;5.158;2023-06-10T13:46:05;7.05;;;6.35;;
16669;SDS011;8448;52.034;5.158;2023-06-10T13:48:32;9.13;;;7.00;;
16669;SDS011;8448;52.034;5.158;2023-06-10T13:51:00;9.10;;;6.90;;
16669;SDS011;8448;52.034;5.158;2023-06-10T13:53:27;8.88;;;7.18;;
16669;SDS011;8448;52.034;5.158;2023-06-10T13:55:55;7.90;;;7.20;;
16669;SDS011;8448;52.034;5.158;2023-06-10T13:58:23;8.90;;;7.05;;
16669;SDS011;8448;52.034;5.158;2023-06-10T14:00:51;7.68;;;6.88;;
16669;SDS011;8448;52.034;5.158;2023-06-10T14:03:18;7.43;;;6.72;;
16669;SDS011;8448;52.034;5.158;2023-06-10T14:05:45;7.45;;;6.75;;
16669;SDS011;8448;52.034;5.158;2023-06-10T14:08:13;7.68;;;6.88;;
16669;SDS011;8448;52.034;5.158;2023-06-10T14:10:40;8.82;;;6.80;;
16669;SDS011;8448;52.034;5.158;2023-06-10T14:13:08;10.68;;;7.22;;
16669;SDS011;8448;52.034;5.158;2023-06-10T14:15:36;7.53;;;6.72;;
16669;SDS011;8448;52.034;5.158;2023-06-10T14:18:04;7.97;;;7.18;;
16669;SDS011;8448;52.034;5.158;2023-06-10T14:20:31;8.48;;;7.10;;
16669;SDS011;8448;52.034;5.158;2023-06-10T14:22:59;8.02;;;7.20;;
16669;SDS011;8448;52.034;5.158;2023-06-10T14:25:27;8.95;;;6.78;;
16669;SDS011;8448;52.034;5.158;2023-06-10T14:27:54;10.48;;;6.90;;
16669;SDS011;8448;52.034;5.158;2023-06-10T14:30:22;7.28;;;6.57;;
16669;SDS011;8448;52.034;5.158;2023-06-10T14:32:51;7.55;;;6.80;;
16669;SDS011;8448;52.034;5.158;2023-06-10T14:35:18;8.40;;;6.65;;
16669;SDS011;8448;52.034;5.158;2023-06-10T14:37:46;9.35;;;6.78;;
16669;SDS011;8448;52.034;5.158;2023-06-10T14:40:14;7.50;;;6.32;;
16669;SDS011;8448;52.034;5.158;2023-06-10T14:42:41;8.32;;;7.13;;
16669;SDS011;8448;52.034;5.158;2023-06-10T14:45:09;7.65;;;6.93;;
16669;SDS011;8448;52.034;5.158;2023-06-10T14:47:36;8.20;;;6.80;;
16669;SDS011;8448;52.034;5.158;2023-06-10T14:50:05;7.70;;;6.88;;
16669;SDS011;8448;52.034;5.158;2023-06-10T14:52:33;8.02;;;7.03;;
16669;SDS011;8448;52.034;5.158;2023-06-10T14:55:00;9.30;;;6.85;;
16669;SDS011;8448;52.034;5.158;2023-06-10T14:57:28;9.63;;;6.80;;
16669;SDS011;8448;52.034;5.158;2023-06-10T14:59:55;9.82;;;7.03;;
16669;SDS011;8448;52.034;5.158;2023-06-10T15:02:22;7.70;;;6.13;;
16669;SDS011;8448;52.034;5.158;2023-06-10T15:04:50;7.57;;;6.88;;
16669;SDS011;8448;52.034;5.158;2023-06-10T15:07:19;7.65;;;6.13;;
16669;SDS011;8448;52.034;5.158;2023-06-10T15:09:46;7.78;;;6.97;;